Time;durP1;ratioP1;P1;durP2;ratioP2;P2;SDS_P1;SDS_P2;PMS_P1;PMS_P2;Temp;Humidity;BMP_temperature;BMP_pressure;BME280_temperature;BME280_humidity;BME280_pressure;Samples;Min_cycle;Max_cycle;Signal;HPM_P1;HPM_P2
2022/05/22 00:02:25;;;;;;;;;9.00;9.00;;;;;;;;5040793;28;22863;-79
2022/05/22 00:04:53;;;;;;;;;10.75;9.75;;;;;;;;5041063;28;8812;-80
2022/05/22 00:07:18;;;;;;;;;13.50;9.75;;;;;;;;5038947;28;24076;-80
2022/05/22 00:09:44;;;;;;;;;11.00;9.50;;;;;;;;5040866;28;10687;-79
2022/05/22 00:12:10;;;;;;;;;11.00;10.00;;;;;;;;5040384;28;10474;-79
2022/05/22 00:14:35;;;;;;;;;8.25;8.25;;;;;;;;5038232;28;16853;-78
2022/05/22 00:17:01;;;;;;;;;13.00;10.50;;;;;;;;5039379;28;22209;-78
2022/05/22 00:19:27;;;;;;;;;12.50;10.50;;;;;;;;5039542;28;23424;-78
2022/05/22 06:20:03;;;;;;;;;18.75;14.50;;;;;;;;5157144;27;78832;-81
2022/05/22 06:22:29;;;;;;;;;13.25;12.50;;;;;;;;5144937;27;22716;-81
2022/05/22 06:24:55;;;;;;;;;13.25;13.25;;;;;;;;5141411;27;11694;-79
2022/05/22 06:27:20;;;;;;;;;14.00;12.25;;;;;;;;5143540;27;8911;-80
2022/05/22 06:29:46;;;;;;;;;12.25;12.00;;;;;;;;5140599;27;13385;-80
2022/05/22 06:32:13;;;;;;;;;15.50;13.00;;;;;;;;5145337;27;13333;-81
2022/05/22 06:34:41;;;;;;;;;12.25;11.75;;;;;;;;5144518;27;10490;-80
2022/05/22 06:37:07;;;;;;;;;15.50;13.75;;;;;;;;5143591;27;11502;-78
2022/05/22 06:39:51;;;;;;;;;15.75;13.75;;;;;;;;5141791;27;11417;-81
2022/05/22 06:42:20;;;;;;;;;14.50;13.00;;;;;;;;5145180;27;11977;-80
2022/05/22 06:44:51;;;;;;;;;17.00;12.00;;;;;;;;5143336;27;11604;-84
2022/05/22 06:47:16;;;;;;;;;18.75;12.75;;;;;;;;5144997;27;11167;-81
2022/05/22 06:49:42;;;;;;;;;13.75;11.50;;;;;;;;5141922;27;11369;-79
2022/05/22 06:52:08;;;;;;;;;14.00;11.00;;;;;;;;5142284;27;11588;-79
2022/05/22 06:54:34;;;;;;;;;15.50;14.00;;;;;;;;5143221;27;11370;-81
2022/05/22 06:56:59;;;;;;;;;34.25;29.50;;;;;;;;5142932;27;13740;-79
2022/05/22 06:59:25;;;;;;;;;11.50;10.75;;;;;;;;5142391;27;13330;-80
2022/05/22 07:01:50;;;;;;;;;15.50;13.00;;;;;;;;5144234;27;15143;-83
2022/05/22 07:04:15;;;;;;;;;12.25;10.75;;;;;;;;5143899;27;12540;-85
2022/05/22 07:06:41;;;;;;;;;11.75;11.75;;;;;;;;5141319;27;13507;-87
2022/05/22 07:09:06;;;;;;;;;14.00;10.75;;;;;;;;5141109;27;10046;-81
2022/05/22 07:11:38;;;;;;;;;15.00;13.00;;;;;;;;5145743;27;12719;-85
2022/05/22 07:14:03;;;;;;;;;13.00;13.00;;;;;;;;5155366;27;11951;-83
2022/05/22 07:16:28;;;;;;;;;11.25;11.25;;;;;;;;5134553;27;10470;-84
2022/05/22 07:18:53;;;;;;;;;11.25;10.00;;;;;;;;5133405;27;11440;-84
2022/05/22 07:21:19;;;;;;;;;10.00;10.00;;;;;;;;5135214;27;9526;-83
2022/05/22 07:23:44;;;;;;;;;9.25;8.50;;;;;;;;5135529;27;8942;-84
2022/05/22 07:26:09;;;;;;;;;16.25;14.00;;;;;;;;5134866;27;23403;-85
2022/05/22 07:28:35;;;;;;;;;16.25;14.00;;;;;;;;5133105;27;24740;-84
2022/05/22 07:31:00;;;;;;;;;16.75;13.00;;;;;;;;5121891;27;8841;-83
2022/05/22 07:33:25;;;;;;;;;16.00;13.00;;;;;;;;5121708;27;8813;-84
2022/05/22 07:35:57;;;;;;;;;13.00;12.25;;;;;;;;5121016;28;8794;-84
2022/05/22 07:38:23;;;;;;;;;12.50;10.75;;;;;;;;5120517;27;11695;-84
2022/05/22 07:40:49;;;;;;;;;10.50;10.00;;;;;;;;5119709;28;11759;-84
2022/05/22 07:43:14;;;;;;;;;12.00;10.50;;;;;;;;5120973;27;11606;-85
2022/05/22 07:45:39;;;;;;;;;12.00;11.75;;;;;;;;5119543;28;12749;-83
2022/05/22 07:48:05;;;;;;;;;14.00;11.50;;;;;;;;5119306;28;11476;-83
2022/05/22 07:50:30;;;;;;;;;17.50;16.50;;;;;;;;5121315;27;11359;-84
2022/05/22 07:52:56;;;;;;;;;30.50;27.25;;;;;;;;5119423;28;11034;-84
2022/05/22 07:55:21;;;;;;;;;11.25;9.75;;;;;;;;5120570;27;13239;-84
2022/05/22 07:57:47;;;;;;;;;15.50;11.75;;;;;;;;5120144;27;22437;-84
2022/05/22 08:00:14;;;;;;;;;23.75;18.25;;;;;;;;5119713;27;23071;-83
2022/05/22 08:02:39;;;;;;;;;11.00;11.00;;;;;;;;5121119;27;12503;-83
2022/05/22 08:05:06;;;;;;;;;12.67;11.33;;;;;;;;5121585;28;13195;-85
2022/05/22 08:07:32;;;;;;;;;18.00;18.00;;;;;;;;5120816;27;11740;-84
2022/05/22 08:09:57;;;;;;;;;18.00;16.67;;;;;;;;5120179;27;11524;-84
2022/05/22 08:12:22;;;;;;;;;11.00;11.00;;;;;;;;5120473;27;9319;-84
2022/05/22 08:14:48;;;;;;;;;12.33;11.33;;;;;;;;5120195;27;12630;-84
2022/05/22 08:17:15;;;;;;;;;9.00;9.00;;;;;;;;5121154;27;11446;-85
2022/05/22 08:19:40;;;;;;;;;9.75;9.00;;;;;;;;5119771;27;22348;-85
2022/05/22 08:22:06;;;;;;;;;9.00;8.00;;;;;;;;5120534;27;9487;-84
2022/05/22 08:24:31;;;;;;;;;10.33;9.00;;;;;;;;5120399;28;9621;-85
2022/05/22 08:26:56;;;;;;;;;11.00;9.67;;;;;;;;5119783;28;21917;-84
2022/05/22 08:29:22;;;;;;;;;12.00;10.67;;;;;;;;5117840;28;12703;-85
2022/05/22 08:31:47;;;;;;;;;11.00;10.00;;;;;;;;5119759;28;21578;-87
2022/05/22 08:34:14;;;;;;;;;9.00;9.00;;;;;;;;5120146;28;12797;-85
2022/05/22 08:36:39;;;;;;;;;8.75;8.75;;;;;;;;5120065;27;22432;-85
2022/05/22 08:39:05;;;;;;;;;10.00;8.00;;;;;;;;5120847;27;11283;-87
2022/05/22 08:41:37;;;;;;;;;9.67;9.67;;;;;;;;5118538;27;21775;-85
2022/05/22 08:44:07;;;;;;;;;9.00;8.75;;;;;;;;5118090;28;23861;-86
2022/05/22 08:46:45;;;;;;;;;8.00;8.00;;;;;;;;5120872;27;10520;-87
2022/05/22 08:49:20;;;;;;;;;9.00;9.00;;;;;;;;5118845;28;11501;-87
2022/05/22 08:51:49;;;;;;;;;10.50;9.00;;;;;;;;5120884;27;8840;-87
2022/05/22 08:54:21;;;;;;;;;8.75;8.75;;;;;;;;5120649;27;17656;-88
2022/05/22 08:59:34;;;;;;;;;11.00;9.50;;;;;;;;5119794;28;22515;-88
2022/05/22 09:02:18;;;;;;;;;9.00;9.00;;;;;;;;5119878;27;22926;-91
2022/05/22 09:04:47;;;;;;;;;9.00;8.00;;;;;;;;5120013;27;22720;-87
2022/05/22 09:07:31;;;;;;;;;11.00;9.00;;;;;;;;5120841;27;8904;-86
2022/05/22 09:10:07;;;;;;;;;9.50;9.50;;;;;;;;5119213;28;23167;-87
2022/05/22 09:12:39;;;;;;;;;10.25;9.75;;;;;;;;5120184;27;22132;-87
2022/05/22 09:15:08;;;;;;;;;11.25;10.00;;;;;;;;5119837;28;21967;-87
2022/05/22 09:17:43;;;;;;;;;10.75;9.75;;;;;;;;5118258;28;22384;-87
2022/05/22 09:20:16;;;;;;;;;10.00;10.00;;;;;;;;5119725;27;21456;-87
2022/05/22 09:22:41;;;;;;;;;11.75;10.00;;;;;;;;5119422;27;22875;-87
2022/05/22 09:25:28;;;;;;;;;12.00;11.00;;;;;;;;5119536;28;9060;-87
2022/05/22 09:28:00;;;;;;;;;13.00;11.50;;;;;;;;5118513;28;12981;-88
2022/05/22 09:30:32;;;;;;;;;10.00;9.00;;;;;;;;5118193;28;12011;-88
2022/05/22 09:33:16;;;;;;;;;10.00;10.00;;;;;;;;5120229;27;21488;-84
2022/05/22 09:36:04;;;;;;;;;12.00;10.00;;;;;;;;5119326;28;17611;-82
2022/05/22 09:38:37;;;;;;;;;11.00;9.50;;;;;;;;5131246;27;8788;-94
2022/05/22 09:41:18;;;;;;;;;11.00;9.00;;;;;;;;5128978;27;21471;-82
2022/05/22 09:43:52;;;;;;;;;9.25;9.25;;;;;;;;5128080;27;8916;-83
2022/05/22 09:46:42;;;;;;;;;8.00;8.00;;;;;;;;5125574;27;23674;-82
2022/05/22 09:49:17;;;;;;;;;7.50;7.50;;;;;;;;5126209;27;13450;-86
2022/05/22 09:51:42;;;;;;;;;7.25;7.25;;;;;;;;5127041;27;11424;-74
2022/05/22 09:54:11;;;;;;;;;11.00;8.33;;;;;;;;5127363;27;8827;-82
2022/05/22 09:56:45;;;;;;;;;10.25;10.25;;;;;;;;5126596;27;22061;-84
2022/05/22 09:59:29;;;;;;;;;9.50;9.00;;;;;;;;5125825;27;21500;-77
2022/05/22 10:01:56;;;;;;;;;9.75;9.50;;;;;;;;5127682;27;22847;-78
2022/05/22 10:04:27;;;;;;;;;10.25;10.25;;;;;;;;5126624;27;10066;-77
2022/05/22 10:07:01;;;;;;;;;8.75;8.50;;;;;;;;5127448;27;22309;-85
2022/05/22 10:09:29;;;;;;;;;10.25;8.75;;;;;;;;5126588;27;22483;-78
2022/05/22 10:12:20;;;;;;;;;11.75;10.50;;;;;;;;5127683;27;23025;-77
2022/05/22 10:14:45;;;;;;;;;11.75;11.75;;;;;;;;5122717;27;21448;-90
2022/05/22 10:17:23;;;;;;;;;11.33;11.00;;;;;;;;5129363;27;9266;-87
2022/05/22 10:20:00;;;;;;;;;16.25;15.50;;;;;;;;5126837;27;9736;-77
2022/05/22 10:22:25;;;;;;;;;9.50;8.75;;;;;;;;5127564;27;12373;-81
2022/05/22 10:24:55;;;;;;;;;12.00;9.00;;;;;;;;5127685;27;22920;-86
2022/05/22 10:27:30;;;;;;;;;6.25;6.25;;;;;;;;5127758;27;22068;-92
2022/05/22 10:30:08;;;;;;;;;8.00;8.00;;;;;;;;5125734;27;24574;-92
2022/05/22 10:32:39;;;;;;;;;8.00;7.75;;;;;;;;5135895;27;11581;-91
2022/05/22 10:35:18;;;;;;;;;7.25;7.25;;;;;;;;5129981;27;9808;-81
2022/05/22 10:37:52;;;;;;;;;7.75;7.00;;;;;;;;5132111;27;10535;-84
2022/05/22 10:40:19;;;;;;;;;9.50;7.75;;;;;;;;5135044;27;8935;-85
2022/05/22 10:42:48;;;;;;;;;8.50;7.50;;;;;;;;5126998;27;11369;-86
2022/05/22 10:45:25;;;;;;;;;10.00;7.25;;;;;;;;5126792;27;13826;-88
2022/05/22 10:47:51;;;;;;;;;7.25;7.25;;;;;;;;5126252;27;21982;-76
2022/05/22 10:50:22;;;;;;;;;9.00;8.00;;;;;;;;5127023;27;17403;-74
2022/05/22 10:52:49;;;;;;;;;7.00;7.00;;;;;;;;5127579;27;11649;-82
2022/05/22 10:55:34;;;;;;;;;10.00;10.00;;;;;;;;5127022;27;9342;-82
2022/05/22 10:58:04;;;;;;;;;18.33;14.67;;;;;;;;5113808;27;24008;-81
2022/05/22 11:00:30;;;;;;;;;16.33;15.67;;;;;;;;5123068;27;11659;-79
2022/05/22 11:02:55;;;;;;;;;8.33;7.00;;;;;;;;5124566;27;9063;-80
2022/05/22 11:07:52;;;;;;;;;11.00;9.75;;;;;;;;5008078;28;11625;-76
2022/05/22 11:10:23;;;;;;;;;5.25;5.00;;;;;;;;4992762;28;22371;-78
2022/05/22 11:13:17;;;;;;;;;5.50;5.50;;;;;;;;5010383;28;22139;-78
2022/05/22 11:15:43;;;;;;;;;5.75;5.00;;;;;;;;5004071;28;9100;-77
2022/05/22 11:18:10;;;;;;;;;5.33;5.33;;;;;;;;5011896;28;9789;-79
2022/05/22 11:20:56;;;;;;;;;7.00;5.75;;;;;;;;5011233;28;11442;-76
2022/05/22 11:23:33;;;;;;;;;4.75;4.75;;;;;;;;4993710;28;12845;-80
2022/05/22 11:25:58;;;;;;;;;7.00;7.00;;;;;;;;4993658;28;12442;-79
2022/05/22 11:28:34;;;;;;;;;4.00;4.00;;;;;;;;5009820;28;12576;-77
2022/05/22 11:31:06;;;;;;;;;8.50;8.50;;;;;;;;4991860;28;9133;-76
2022/05/22 11:33:46;;;;;;;;;11.00;11.00;;;;;;;;5011630;28;11408;-78
2022/05/22 11:36:27;;;;;;;;;6.75;6.75;;;;;;;;5011551;28;22454;-77
2022/05/22 11:39:11;;;;;;;;;7.00;7.00;;;;;;;;5011300;28;22536;-77
2022/05/22 11:42:02;;;;;;;;;9.50;9.50;;;;;;;;5025959;28;12040;-75
2022/05/22 11:44:33;;;;;;;;;8.00;5.50;;;;;;;;5007438;28;11608;-75
2022/05/22 11:47:05;;;;;;;;;4.25;4.25;;;;;;;;5024908;28;12421;-76
2022/05/22 11:49:49;;;;;;;;;9.00;6.00;;;;;;;;5011008;28;11558;-77
2022/05/22 11:52:55;;;;;;;;;6.33;6.33;;;;;;;;5025323;28;12016;-76
2022/05/22 11:55:32;;;;;;;;;9.00;9.00;;;;;;;;4989713;28;11610;-77
2022/05/22 11:57:58;;;;;;;;;12.25;9.00;;;;;;;;4989294;28;11737;-79
2022/05/22 12:00:23;;;;;;;;;7.33;7.00;;;;;;;;4987529;28;16290;-80
2022/05/22 12:02:51;;;;;;;;;8.00;8.00;;;;;;;;4972488;28;23587;-78
2022/05/22 12:05:19;;;;;;;;;11.00;9.25;;;;;;;;4988777;28;10643;-76
2022/05/22 12:07:50;;;;;;;;;7.00;6.75;;;;;;;;5023719;28;21430;-77
2022/05/22 12:10:26;;;;;;;;;9.75;7.00;;;;;;;;5029166;28;21554;-77
2022/05/22 12:12:58;;;;;;;;;16.67;11.33;;;;;;;;5031237;28;11433;-76
2022/05/22 12:15:26;;;;;;;;;9.00;9.00;;;;;;;;5029842;28;23670;-74
2022/05/22 12:17:58;;;;;;;;;9.00;8.00;;;;;;;;5029470;28;22278;-73
2022/05/22 12:20:23;;;;;;;;;9.00;8.50;;;;;;;;5030324;28;9788;-75
2022/05/22 12:23:08;;;;;;;;;7.33;7.00;;;;;;;;5028309;28;8840;-73
2022/05/22 12:25:39;;;;;;;;;8.00;8.00;;;;;;;;5030726;28;11565;-77
2022/05/22 12:28:16;;;;;;;;;7.00;7.00;;;;;;;;5029304;28;13572;-75
2022/05/22 12:30:42;;;;;;;;;16.00;12.00;;;;;;;;5027480;28;11900;-75
2022/05/22 12:33:09;;;;;;;;;11.33;10.67;;;;;;;;5022244;28;22397;-77
2022/05/22 12:35:36;;;;;;;;;8.75;8.00;;;;;;;;5019574;28;11755;-77
2022/05/22 12:38:03;;;;;;;;;6.25;6.25;;;;;;;;5027340;28;22605;-77
2022/05/22 12:40:34;;;;;;;;;8.75;7.25;;;;;;;;5026806;28;11805;-76
2022/05/22 12:43:01;;;;;;;;;8.33;7.00;;;;;;;;5027666;28;10094;-77
2022/05/22 12:45:30;;;;;;;;;6.75;6.75;;;;;;;;5038346;28;10630;-78
2022/05/22 12:48:07;;;;;;;;;11.67;7.00;;;;;;;;5040481;28;11378;-76
2022/05/22 12:50:32;;;;;;;;;9.50;8.00;;;;;;;;5031883;28;23575;-76
2022/05/22 12:53:01;;;;;;;;;6.00;6.00;;;;;;;;5025625;28;21360;-78
2022/05/22 12:55:33;;;;;;;;;4.00;4.00;;;;;;;;5028025;28;10344;-77
2022/05/22 12:58:00;;;;;;;;;7.00;7.00;;;;;;;;5037709;28;9496;-78
2022/05/22 13:00:40;;;;;;;;;8.75;5.25;;;;;;;;5031837;28;9054;-77
2022/05/22 13:03:18;;;;;;;;;11.33;10.67;;;;;;;;5031567;28;11379;-78
2022/05/22 13:05:48;;;;;;;;;6.33;6.33;;;;;;;;5024034;28;24265;-77
2022/05/22 13:08:19;;;;;;;;;7.00;7.00;;;;;;;;4989295;28;24859;-77
2022/05/22 13:10:52;;;;;;;;;5.50;5.50;;;;;;;;5008521;28;11382;-77
2022/05/22 13:13:27;;;;;;;;;8.25;7.00;;;;;;;;5010453;28;11460;-78
2022/05/22 13:16:00;;;;;;;;;8.67;7.67;;;;;;;;4999754;28;11439;-77
2022/05/22 13:18:27;;;;;;;;;11.00;11.00;;;;;;;;4999941;28;8876;-79
2022/05/22 13:20:54;;;;;;;;;7.00;5.50;;;;;;;;5008244;28;23720;-79
2022/05/22 13:23:22;;;;;;;;;8.00;8.00;;;;;;;;5013754;28;22586;-79
2022/05/22 13:26:06;;;;;;;;;5.75;5.75;;;;;;;;5019666;28;12558;-77
2022/05/22 13:28:34;;;;;;;;;5.00;4.50;;;;;;;;5018795;28;13143;-78
2022/05/22 13:31:22;;;;;;;;;8.00;8.00;;;;;;;;5020084;28;10882;-79
2022/05/22 13:33:52;;;;;;;;;6.75;5.00;;;;;;;;5009688;28;11398;-79
2022/05/22 13:36:24;;;;;;;;;8.00;8.00;;;;;;;;5011984;28;11432;-79
2022/05/22 13:39:12;;;;;;;;;7.67;6.67;;;;;;;;5019650;28;10711;-78
2022/05/22 13:42:02;;;;;;;;;10.67;9.00;;;;;;;;4999149;28;11857;-78
2022/05/22 13:44:54;;;;;;;;;6.75;5.75;;;;;;;;4999014;28;21784;-78
2022/05/22 13:47:28;;;;;;;;;4.75;4.75;;;;;;;;5007420;28;21647;-77
2022/05/22 13:53:25;;;;;;;;;7.00;6.33;;;;;;;;5006131;28;8787;-75
2022/05/22 13:55:53;;;;;;;;;8.00;8.00;;;;;;;;4953535;28;10495;-79
2022/05/22 13:58:18;;;;;;;;;9.00;5.67;;;;;;;;4987109;28;11910;-76
2022/05/22 14:00:45;;;;;;;;;13.25;13.25;;;;;;;;5006539;28;11320;-77
2022/05/22 14:03:24;;;;;;;;;5.67;5.67;;;;;;;;5018953;28;22280;-77
2022/05/22 14:05:56;;;;;;;;;5.00;5.00;;;;;;;;5018414;28;22270;-77
2022/05/22 14:08:28;;;;;;;;;11.67;8.00;;;;;;;;5018287;28;8906;-75
2022/05/22 14:11:01;;;;;;;;;8.00;6.67;;;;;;;;5017765;28;21531;-75
2022/05/22 14:13:30;;;;;;;;;10.50;7.50;;;;;;;;5011553;28;21584;-75
2022/05/22 14:16:00;;;;;;;;;12.75;11.00;;;;;;;;5008612;28;21603;-76
2022/05/22 14:18:27;;;;;;;;;7.00;7.00;;;;;;;;5003219;28;21615;-75
2022/05/22 14:20:57;;;;;;;;;7.67;5.67;;;;;;;;4998391;28;22442;-76
2022/05/22 14:23:26;;;;;;;;;5.00;5.00;;;;;;;;4980293;28;12305;-76
2022/05/22 14:25:53;;;;;;;;;10.00;8.00;;;;;;;;4998590;28;12742;-75
2022/05/22 14:28:25;;;;;;;;;6.00;6.00;;;;;;;;5000608;28;22082;-73
2022/05/22 14:30:51;;;;;;;;;4.33;4.00;;;;;;;;5008827;28;21511;-76
2022/05/22 14:33:20;;;;;;;;;7.00;7.00;;;;;;;;5007503;28;11476;-76
2022/05/22 14:35:48;;;;;;;;;9.00;9.00;;;;;;;;5005212;28;10359;-74
2022/05/22 14:38:17;;;;;;;;;9.33;9.00;;;;;;;;5006949;28;9364;-76
2022/05/22 14:40:46;;;;;;;;;9.67;8.67;;;;;;;;5009713;28;9989;-75
2022/05/22 14:43:11;;;;;;;;;8.67;5.33;;;;;;;;5009846;28;10409;-75
2022/05/22 14:45:40;;;;;;;;;8.00;8.00;;;;;;;;5010849;28;11313;-75
2022/05/22 14:48:07;;;;;;;;;5.00;4.50;;;;;;;;5011023;28;10604;-74
2022/05/22 14:50:33;;;;;;;;;7.00;5.00;;;;;;;;4988395;28;13591;-74
2022/05/22 14:53:02;;;;;;;;;3.33;3.33;;;;;;;;5007959;28;11308;-73
2022/05/22 14:55:39;;;;;;;;;6.67;5.67;;;;;;;;5008129;28;11443;-77
2022/05/22 14:58:15;;;;;;;;;8.00;8.00;;;;;;;;5010917;28;11385;-79
2022/05/22 15:00:43;;;;;;;;;5.00;5.00;;;;;;;;5009913;28;11532;-74
2022/05/22 15:03:18;;;;;;;;;4.50;4.50;;;;;;;;5008771;28;8990;-77
2022/05/22 15:05:49;;;;;;;;;6.33;4.33;;;;;;;;5008146;28;11781;-79
2022/05/22 15:08:25;;;;;;;;;9.00;7.33;;;;;;;;5000973;28;11428;-76
2022/05/22 15:10:51;;;;;;;;;5.00;4.00;;;;;;;;5001562;28;10603;-75
2022/05/22 15:13:22;;;;;;;;;5.00;5.00;;;;;;;;5001887;28;11377;-75
2022/05/22 15:15:48;;;;;;;;;8.00;5.00;;;;;;;;5001615;28;8980;-75
2022/05/22 15:18:15;;;;;;;;;5.00;4.67;;;;;;;;5001622;28;9026;-74
2022/05/22 15:20:41;;;;;;;;;4.25;3.75;;;;;;;;5001881;28;11805;-74
2022/05/22 15:25:59;;;;;;;;;3.25;3.25;;;;;;;;5001157;28;11345;-76
2022/05/22 15:28:27;;;;;;;;;7.33;4.00;;;;;;;;5000949;28;11365;-74
2022/05/22 15:30:58;;;;;;;;;3.67;3.67;;;;;;;;4983701;28;13727;-75
2022/05/22 15:33:24;;;;;;;;;5.00;4.00;;;;;;;;5001179;28;11885;-76
2022/05/22 15:35:50;;;;;;;;;5.67;4.33;;;;;;;;5000614;28;11536;-75
2022/05/22 15:38:31;;;;;;;;;7.00;6.00;;;;;;;;5001071;28;11629;-76
2022/05/22 15:40:59;;;;;;;;;5.50;4.00;;;;;;;;5001501;28;11919;-76
2022/05/22 15:43:28;;;;;;;;;6.00;4.00;;;;;;;;5000514;28;11555;-75
2022/05/22 15:46:14;;;;;;;;;4.00;4.00;;;;;;;;4982869;28;10933;-75
2022/05/22 15:51:30;;;;;;;;;5.00;5.00;;;;;;;;5000220;28;8754;-75
2022/05/22 15:53:55;;;;;;;;;10.00;10.00;;;;;;;;4983390;28;10059;-74
2022/05/22 15:56:20;;;;;;;;;5.00;5.00;;;;;;;;4982868;28;22816;-74
2022/05/22 15:58:46;;;;;;;;;5.33;5.33;;;;;;;;5001004;28;22289;-78
2022/05/22 16:01:13;;;;;;;;;5.00;5.00;;;;;;;;5001252;28;8915;-74
2022/05/22 16:03:41;;;;;;;;;8.00;7.33;;;;;;;;5001204;28;8797;-78
2022/05/22 16:06:09;;;;;;;;;13.00;13.00;;;;;;;;4989345;28;11537;-76
2022/05/22 16:08:34;;;;;;;;;10.00;10.00;;;;;;;;4982900;28;25635;-78
2022/05/22 16:11:00;;;;;;;;;5.00;4.00;;;;;;;;4998874;28;8906;-75
2022/05/22 16:13:26;;;;;;;;;4.00;4.00;;;;;;;;4999463;28;22700;-78
2022/05/22 16:15:51;;;;;;;;;5.33;3.00;;;;;;;;5001823;28;8782;-78
2022/05/22 16:18:17;;;;;;;;;4.00;4.00;;;;;;;;5001423;28;10771;-78
2022/05/22 16:20:42;;;;;;;;;5.00;4.00;;;;;;;;5001749;28;10342;-77
2022/05/22 16:23:08;;;;;;;;;4.00;4.00;;;;;;;;5000910;28;8813;-77
2022/05/22 16:25:34;;;;;;;;;5.33;4.00;;;;;;;;5000652;28;8802;-78
2022/05/22 16:28:00;;;;;;;;;5.00;5.00;;;;;;;;4999435;28;11456;-78
2022/05/22 16:30:27;;;;;;;;;5.75;4.00;;;;;;;;4982922;28;11618;-76
2022/05/22 16:32:52;;;;;;;;;4.33;3.33;;;;;;;;5000395;28;9703;-77
2022/05/22 16:35:33;;;;;;;;;4.67;4.33;;;;;;;;5000960;28;11389;-76
2022/05/22 16:37:58;;;;;;;;;5.00;3.67;;;;;;;;5000417;28;9721;-76
2022/05/22 16:40:24;;;;;;;;;3.00;3.00;;;;;;;;5000280;28;12373;-76
2022/05/22 16:42:49;;;;;;;;;4.33;3.00;;;;;;;;4999889;28;11789;-75
2022/05/22 16:45:15;;;;;;;;;5.00;3.67;;;;;;;;4999389;28;10684;-76
2022/05/22 16:53:09;;;;;;;;;5.00;3.75;;;;;;;;4999931;28;8769;-76
2022/05/22 16:55:45;;;;;;;;;5.00;3.50;;;;;;;;4999163;28;12059;-78
2022/05/22 16:58:12;;;;;;;;;4.50;4.50;;;;;;;;4999752;28;8891;-87
2022/05/22 17:00:38;;;;;;;;;8.00;6.00;;;;;;;;5000704;28;10506;-78
2022/05/22 17:03:04;;;;;;;;;5.25;4.50;;;;;;;;4998951;28;12736;-77
2022/05/22 17:05:31;;;;;;;;;4.00;4.00;;;;;;;;5002772;28;11464;-75
2022/05/22 17:07:58;;;;;;;;;4.67;4.33;;;;;;;;4999182;28;11697;-76
2022/05/22 17:10:23;;;;;;;;;6.25;4.75;;;;;;;;5000819;28;9968;-80
2022/05/22 17:12:49;;;;;;;;;6.00;4.33;;;;;;;;5000154;28;10552;-76
2022/05/22 17:15:15;;;;;;;;;4.00;4.00;;;;;;;;5000583;28;8774;-83
2022/05/22 17:17:40;;;;;;;;;4.00;4.00;;;;;;;;5000608;28;12752;-80
2022/05/22 17:20:05;;;;;;;;;3.00;3.00;;;;;;;;5003570;28;8823;-77
2022/05/22 17:22:32;;;;;;;;;4.00;4.00;;;;;;;;4991430;28;10982;-78
2022/05/22 17:25:04;;;;;;;;;4.50;3.25;;;;;;;;5008136;28;10517;-75
2022/05/22 17:27:41;;;;;;;;;5.00;4.25;;;;;;;;5006344;28;11534;-72
2022/05/22 17:30:07;;;;;;;;;7.67;6.67;;;;;;;;5007741;28;10557;-71
2022/05/22 17:32:32;;;;;;;;;8.00;8.00;;;;;;;;5008562;28;11347;-70
2022/05/22 17:34:57;;;;;;;;;9.67;7.33;;;;;;;;5005014;28;11566;-69
2022/05/22 17:37:22;;;;;;;;;6.00;5.00;;;;;;;;5005138;28;11477;-70
2022/05/22 17:39:48;;;;;;;;;6.67;6.67;;;;;;;;5006400;28;11828;-73
2022/05/22 17:42:15;;;;;;;;;8.00;6.67;;;;;;;;4989725;28;13344;-71
2022/05/22 17:44:40;;;;;;;;;7.00;7.00;;;;;;;;5005435;28;9602;-71
2022/05/22 17:47:06;;;;;;;;;7.33;6.33;;;;;;;;5007434;28;11286;-70
2022/05/22 17:49:31;;;;;;;;;5.67;5.33;;;;;;;;5004005;28;10352;-70
2022/05/22 17:51:57;;;;;;;;;8.00;6.00;;;;;;;;5007292;28;11722;-70
2022/05/22 17:54:22;;;;;;;;;6.00;6.00;;;;;;;;5005478;28;11573;-70
2022/05/22 17:56:47;;;;;;;;;6.00;6.00;;;;;;;;5008233;28;9508;-69
2022/05/22 17:59:13;;;;;;;;;8.00;5.67;;;;;;;;5006978;28;8911;-70
2022/05/22 18:01:39;;;;;;;;;6.00;6.00;;;;;;;;5005714;28;11589;-70
2022/05/22 18:04:04;;;;;;;;;6.67;6.00;;;;;;;;5007510;28;11743;-70
2022/05/22 18:06:30;;;;;;;;;4.67;4.33;;;;;;;;5004946;28;8813;-70
2022/05/22 18:08:55;;;;;;;;;8.33;5.67;;;;;;;;5005598;28;11567;-72
2022/05/22 18:16:51;;;;;;;;;9.00;7.00;;;;;;;;5005498;28;11348;-83
2022/05/22 18:19:17;;;;;;;;;13.50;11.00;;;;;;;;5007044;28;10537;-83
2022/05/22 18:21:42;;;;;;;;;8.67;5.00;;;;;;;;4987345;28;24120;-83
2022/05/22 18:27:05;;;;;;;;;7.33;6.00;;;;;;;;5007530;28;11565;-82
2022/05/22 18:29:32;;;;;;;;;6.67;4.00;;;;;;;;5006676;28;9937;-81
2022/05/22 18:32:01;;;;;;;;;10.33;8.00;;;;;;;;4989993;28;12732;-79
2022/05/22 18:34:27;;;;;;;;;8.00;7.00;;;;;;;;5006316;28;21465;-80
2022/05/22 18:36:53;;;;;;;;;5.33;5.33;;;;;;;;5008554;28;21563;-81
2022/05/22 18:39:18;;;;;;;;;6.00;6.00;;;;;;;;5007227;28;11524;-81
2022/05/22 18:41:44;;;;;;;;;6.00;5.67;;;;;;;;4996988;28;11346;-83
2022/05/22 18:44:20;;;;;;;;;6.00;5.00;;;;;;;;5018892;28;10180;-83
2022/05/22 18:46:46;;;;;;;;;3.33;3.33;;;;;;;;5001457;28;9254;-83
2022/05/22 18:49:11;;;;;;;;;4.00;3.67;;;;;;;;5004755;28;11481;-81
2022/05/22 18:51:37;;;;;;;;;3.33;3.33;;;;;;;;4999924;28;12928;-84
2022/05/22 18:54:09;;;;;;;;;4.33;3.00;;;;;;;;4996478;28;12190;-84
2022/05/22 18:56:36;;;;;;;;;3.33;3.00;;;;;;;;4998486;28;12727;-79
2022/05/22 18:59:05;;;;;;;;;6.00;4.00;;;;;;;;4998629;28;9055;-79
2022/05/22 19:01:31;;;;;;;;;5.00;5.00;;;;;;;;5005094;28;10378;-78
2022/05/22 19:03:57;;;;;;;;;7.00;5.00;;;;;;;;4989338;28;11400;-84
2022/05/22 19:06:22;;;;;;;;;6.33;4.33;;;;;;;;5007655;28;11512;-82
2022/05/22 19:08:48;;;;;;;;;5.33;5.33;;;;;;;;5018258;28;11299;-80
2022/05/22 19:11:14;;;;;;;;;5.00;5.00;;;;;;;;5024443;28;9597;-80
2022/05/22 19:13:42;;;;;;;;;5.00;4.33;;;;;;;;5038042;28;8773;-83
2022/05/22 19:16:15;;;;;;;;;23.50;21.75;;;;;;;;5037608;28;9286;-80
2022/05/22 19:18:40;;;;;;;;;13.00;10.00;;;;;;;;5038261;28;22607;-80
2022/05/22 19:21:06;;;;;;;;;6.00;4.33;;;;;;;;5038185;28;14402;-77
2022/05/22 19:23:35;;;;;;;;;4.67;4.67;;;;;;;;5036990;28;22230;-78
2022/05/22 19:26:01;;;;;;;;;4.33;4.00;;;;;;;;5037777;28;11768;-78
2022/05/22 19:28:29;;;;;;;;;6.67;5.67;;;;;;;;5040436;28;9309;-78
2022/05/22 19:30:54;;;;;;;;;5.00;5.00;;;;;;;;5023140;28;13275;-79
2022/05/22 19:33:22;;;;;;;;;7.75;7.00;;;;;;;;5027183;28;14520;-79
2022/05/22 19:35:47;;;;;;;;;5.67;5.67;;;;;;;;5020627;28;10334;-79
2022/05/22 19:38:13;;;;;;;;;6.75;5.25;;;;;;;;5021640;28;11880;-79
2022/05/22 19:40:41;;;;;;;;;5.00;5.00;;;;;;;;5021513;28;12371;-80
2022/05/22 19:45:51;;;;;;;;;5.00;4.00;;;;;;;;5020428;28;11367;-78
2022/05/22 19:48:20;;;;;;;;;4.00;4.00;;;;;;;;5020980;28;11315;-76
2022/05/22 19:50:45;;;;;;;;;6.75;4.25;;;;;;;;5021839;28;8895;-74
2022/05/22 19:53:11;;;;;;;;;3.75;3.75;;;;;;;;5020852;28;11611;-81
2022/05/22 19:58:39;;;;;;;;;5.50;5.50;;;;;;;;5021062;28;11346;-81
2022/05/22 20:01:10;;;;;;;;;8.50;7.25;;;;;;;;5021497;28;11996;-81
2022/05/22 20:03:42;;;;;;;;;6.00;6.00;;;;;;;;5021173;28;11394;-82
2022/05/22 20:06:09;;;;;;;;;7.50;6.00;;;;;;;;5019043;28;11593;-81
2022/05/22 20:08:36;;;;;;;;;7.00;6.00;;;;;;;;5000999;28;9721;-81
2022/05/22 20:11:04;;;;;;;;;10.75;7.75;;;;;;;;5003563;28;9596;-82
2022/05/22 20:13:30;;;;;;;;;9.00;7.25;;;;;;;;4989926;28;22519;-80
2022/05/22 20:15:56;;;;;;;;;9.75;9.50;;;;;;;;5007666;28;22175;-81
2022/05/22 20:18:21;;;;;;;;;6.00;6.00;;;;;;;;5010493;28;10269;-80
2022/05/22 20:20:47;;;;;;;;;10.25;7.50;;;;;;;;4995070;28;14546;-81
2022/05/22 20:23:16;;;;;;;;;9.50;8.00;;;;;;;;5008870;28;21652;-81
2022/05/22 20:25:43;;;;;;;;;8.50;8.00;;;;;;;;5000938;28;21938;-81
2022/05/22 20:28:25;;;;;;;;;8.25;7.75;;;;;;;;5001401;28;9806;-90
2022/05/22 20:30:53;;;;;;;;;9.00;8.25;;;;;;;;4983558;28;13647;-80
2022/05/22 20:33:19;;;;;;;;;8.50;8.00;;;;;;;;5000916;28;10985;-81
2022/05/22 20:35:44;;;;;;;;;9.25;9.00;;;;;;;;5005407;28;12376;-79
2022/05/22 20:38:10;;;;;;;;;8.50;8.50;;;;;;;;5019462;28;10669;-79
2022/05/22 20:40:37;;;;;;;;;7.75;7.75;;;;;;;;5006696;28;11634;-80
2022/05/22 20:43:02;;;;;;;;;9.50;9.00;;;;;;;;5020841;28;11386;-80
2022/05/22 20:45:28;;;;;;;;;8.00;8.00;;;;;;;;5020599;28;11311;-81
2022/05/22 20:47:57;;;;;;;;;7.50;7.50;;;;;;;;5020314;28;10278;-80
2022/05/22 20:50:23;;;;;;;;;7.00;7.00;;;;;;;;5020368;28;11628;-80
2022/05/22 20:52:49;;;;;;;;;7.00;7.00;;;;;;;;5020383;28;9725;-81
2022/05/22 20:58:03;;;;;;;;;10.50;9.00;;;;;;;;5020919;28;8879;-80
2022/05/22 21:00:28;;;;;;;;;9.25;9.25;;;;;;;;5020023;28;17481;-81
2022/05/22 21:02:54;;;;;;;;;6.00;6.00;;;;;;;;5020035;28;22623;-80
2022/05/22 21:05:20;;;;;;;;;8.25;7.50;;;;;;;;5018010;28;13776;-81
2022/05/22 21:07:45;;;;;;;;;9.00;7.50;;;;;;;;5018335;28;11764;-81
2022/05/22 21:10:11;;;;;;;;;8.75;8.75;;;;;;;;5019487;28;8893;-80
2022/05/22 21:12:36;;;;;;;;;9.75;8.00;;;;;;;;5018559;28;14505;-80
2022/05/22 21:15:03;;;;;;;;;8.25;7.00;;;;;;;;5020891;28;11328;-80
2022/05/22 21:17:28;;;;;;;;;8.75;8.75;;;;;;;;5020311;28;9977;-80
2022/05/22 21:19:58;;;;;;;;;10.75;9.00;;;;;;;;5020321;28;10392;-80
2022/05/22 21:22:26;;;;;;;;;9.00;8.00;;;;;;;;5019188;28;21706;-80
2022/05/22 21:30:21;;;;;;;;;9.50;9.00;;;;;;;;5018598;28;21402;-79
2022/05/22 21:32:46;;;;;;;;;7.50;7.50;;;;;;;;5018696;28;21775;-79